Tiempo atmosférico en la estación meteorológica de Torre de Cabdella, Lleida (1278 m.)



Fecha
DESCASC
Temp. máxima en grados centígrados (hora)
DESCASC
Temp. mínima en grados centígrados (hora)
DESCASC
Temp. media en grados centígrados
DESCASC
Racha de viento máxima en m/sg (hora)
DESCASC
Velocidad máxima media en intervalos de 10 minutos(hora)
DESCASC
Precipitaciones diarias en mm
DESCASC
Precipitaciones de 00:00 a 06:00 en mm
DESCASC
Precipitaciones de 06:00 a 12:00 en mm
DESCASC
Precipitaciones de 12:00 a 18:00 en mm
DESCASC
Precipitaciones de 18:00 a 24:00 en mm
DESCASC
22-11-2020 13.8 (13:40) 1.1 (04:40) 7.5 -- (--) -- (--) 0 0 0 0 0
21-11-2020 13.2 (13:00) 1.2 (06:40) 7.2 -- (--) -- (--) 0 0 0 0 0
20-11-2020 12.6 (12:40) 2.3 (22:50) 7.5 -- (--) -- (--) 0 0 0 0 0
19-11-2020 17.7 (13:10) 5 (00:00) 11.4 -- (--) -- (--) 0 0 0 0 0
18-11-2020 18 (13:40) 5.5 (00:00) 11.8 -- (--) -- (--) 0 0 0 0 0
17-11-2020 17.4 (14:30) 4 (00:00) 10.7 -- (--) -- (--) 0 0 0 0 0
16-11-2020 15.3 (13:50) 4.8 (00:00) 10.1 -- (--) -- (--) 0 0 0 0 0
15-11-2020 14 (13:10) 3.7 (06:00) 8.9 -- (--) -- (--) 0 0 0 0 0
14-11-2020 13.8 (13:50) 2.4 (07:20) 8.1 -- (--) -- (--) 0 0 0 0 0
13-11-2020 13.9 (14:20) 3.7 (23:50) 8.8 -- (--) -- (--) 0 0 0 0 0

Gráficas

Temp. máximas Temp. mínimas Temp. medias Precipitaciones Rachas de viento máximas Velocidades máximas media en intervalos de 10 minutos

Datos horarios

Fecha y hora oficial Temperatura (ºC) Velocidad del viento (km/h) Dirección del viento Racha (km/h) Dirección de racha Precipitación (mm) Presión (hPa) Tendencia (hPa) Humedad (%)
2020-11-25 23:00:00 5.4 -- -- -- -- 0 -- -- 96
2020-11-25 22:00:00 5.3 -- -- -- -- 0 -- -- 96
2020-11-25 21:00:00 5.3 -- -- -- -- 0 -- -- 95
2020-11-25 20:00:00 5.3 -- -- -- -- 0 -- -- 94
2020-11-25 19:00:00 5.6 -- -- -- -- 0.2 -- -- 88
2020-11-25 18:00:00 6.2 -- -- -- -- 0 -- -- 78
2020-11-25 17:00:00 6.7 -- -- -- -- 0 -- -- 75
2020-11-25 16:00:00 7.2 -- -- -- -- 0 -- -- 70
2020-11-25 15:00:00 8.1 -- -- -- -- 0 -- -- 62
2020-11-25 14:00:00 9.7 -- -- -- -- 0 -- -- 55
2020-11-25 13:00:00 -- -- -- -- -- -- -- -- --
2020-11-25 12:00:00 9.2 -- -- -- -- 0 -- -- 56
2020-11-25 11:00:00 6.8 -- -- -- -- 0 -- -- 65
2020-11-25 10:00:00 0.8 -- -- -- -- 0 -- -- 78
2020-11-25 09:00:00 0.3 -- -- -- -- 0 -- -- 74
2020-11-25 08:00:00 -0.3 -- -- -- -- 0 -- -- 72
2020-11-25 07:00:00 -0.1 -- -- -- -- 0 -- -- 72
2020-11-25 06:00:00 -0.5 -- -- -- -- 0 -- -- 76
2020-11-25 05:00:00 0.2 -- -- -- -- 0 -- -- 73
2020-11-25 04:00:00 1.2 -- -- -- -- 0 -- -- 67
2020-11-25 03:00:00 0.2 -- -- -- -- 0 -- -- 71
2020-11-25 02:00:00 0.6 -- -- -- -- 0 -- -- 74
2020-11-25 01:00:00 0.8 -- -- -- -- 0 -- -- 74
2020-11-25 00:00:00 1.3 -- -- -- -- 0 -- -- 72
2020-11-24 23:00:00 1.9 -- -- -- -- 0 -- -- 70
2020-11-24 22:00:00 2.4 -- -- -- -- 0 -- -- 74
2020-11-24 21:00:00 3.2 -- -- -- -- 0 -- -- 70
2020-11-24 20:00:00 3.6 -- -- -- -- 0 -- -- 66
2020-11-24 19:00:00 3.9 -- -- -- -- 0 -- -- 65
2020-11-24 18:00:00 4.9 -- -- -- -- 0 -- -- 60
2020-11-24 17:00:00 6.2 -- -- -- -- 0 -- -- 56
2020-11-24 16:00:00 8.8 -- -- -- -- 0 -- -- 49
2020-11-24 15:00:00 12.2 -- -- -- -- 0 -- -- 34
2020-11-24 14:00:00 13 -- -- -- -- 0 -- -- 30
2020-11-24 13:00:00 12.4 -- -- -- -- 0 -- -- 32
2020-11-24 12:00:00 12.3 -- -- -- -- 0 -- -- 35
2020-11-24 11:00:00 9.4 -- -- -- -- 0 -- -- 45
2020-11-24 10:00:00 3.8 -- -- -- -- 0 -- -- 72
2020-11-24 09:00:00 3.2 -- -- -- -- 0 -- -- 68
2020-11-24 08:00:00 2.8 -- -- -- -- 0 -- -- 64
2020-11-24 07:00:00 2.5 -- -- -- -- 0 -- -- 70
2020-11-24 06:00:00 3.2 -- -- -- -- 0 -- -- 66
2020-11-24 05:00:00 2.9 -- -- -- -- 0 -- -- 65
2020-11-24 04:00:00 3.5 -- -- -- -- 0 -- -- 65
2020-11-24 03:00:00 2.5 -- -- -- -- 0 -- -- 69
2020-11-24 02:00:00 2.6 -- -- -- -- 0 -- -- 70
2020-11-24 01:00:00 2.6 -- -- -- -- 0 -- -- 71
2020-11-24 00:00:00 2.6 -- -- -- -- 0 -- -- 72
2020-11-23 23:00:00 2.9 -- -- -- -- 0 -- -- 70
2020-11-23 22:00:00 3.2 -- -- -- -- 0 -- -- 70
2020-11-23 21:00:00 3.4 -- -- -- -- 0 -- -- 69
2020-11-23 20:00:00 3.8 -- -- -- -- 0 -- -- 67
2020-11-23 19:00:00 4 -- -- -- -- 0 -- -- 67
2020-11-23 18:00:00 5 -- -- -- -- 0 -- -- 62
2020-11-23 17:00:00 6.8 -- -- -- -- 0 -- -- 58
2020-11-23 16:00:00 9 -- -- -- -- 0 -- -- 49
2020-11-23 15:00:00 12.4 -- -- -- -- 0 -- -- 39
2020-11-23 14:00:00 12.9 -- -- -- -- 0 -- -- 35
2020-11-23 13:00:00 12.6 -- -- -- -- 0 -- -- 34
2020-11-23 12:00:00 11.2 -- -- -- -- 0 -- -- 35
2020-11-23 11:00:00 8.2 -- -- -- -- 0 -- -- 43
2020-11-23 10:00:00 2.1 -- -- -- -- 0 -- -- 70
2020-11-23 09:00:00 1.4 -- -- -- -- 0 -- -- 73
2020-11-23 08:00:00 1.2 -- -- -- -- 0 -- -- 70
2020-11-23 07:00:00 1.3 -- -- -- -- 0 -- -- 69
2020-11-23 06:00:00 2 -- -- -- -- 0 -- -- 60
2020-11-23 05:00:00 2.4 -- -- -- -- 0 -- -- 65
2020-11-23 04:00:00 2.7 -- -- -- -- 0 -- -- 57
2020-11-23 03:00:00 3.7 -- -- -- -- 0 -- -- 54
2020-11-23 02:00:00 5.6 -- -- -- -- 0 -- -- 44
2020-11-23 01:00:00 4.5 -- -- -- -- 0 -- -- 50
2020-11-23 00:00:00 3.9 -- -- -- -- 0 -- -- 59
2020-11-22 23:00:00 3.3 -- -- -- -- 0 -- -- 59
2020-11-22 22:00:00 3.1 -- -- -- -- 0 -- -- 62
2020-11-22 21:00:00 3.6 -- -- -- -- 0 -- -- 61
2020-11-22 20:00:00 3 -- -- -- -- 0 -- -- 65
2020-11-22 19:00:00 3.6 -- -- -- -- 0 -- -- 66
2020-11-22 18:00:00 4.5 -- -- -- -- 0 -- -- 65
2020-11-22 17:00:00 6.4 -- -- -- -- 0 -- -- 60
2020-11-22 16:00:00 9.1 -- -- -- -- 0 -- -- 47
2020-11-22 15:00:00 13.5 -- -- -- -- 0 -- -- 33
2020-11-22 14:00:00 13.8 -- -- -- -- 0 -- -- 29
2020-11-22 13:00:00 12.9 -- -- -- -- 0 -- -- 27
2020-11-22 12:00:00 11.9 -- -- -- -- 0 -- -- 27
2020-11-22 11:00:00 8.1 -- -- -- -- 0 -- -- 43
2020-11-22 10:00:00 2.5 -- -- -- -- 0 -- -- 66
2020-11-22 09:00:00 1.9 -- -- -- -- 0 -- -- 64
2020-11-22 08:00:00 2.2 -- -- -- -- 0 -- -- 52
2020-11-22 07:00:00 1.8 -- -- -- -- 0 -- -- 54
2020-11-22 06:00:00 1.6 -- -- -- -- 0 -- -- 52
2020-11-22 05:00:00 1.3 -- -- -- -- 0 -- -- 53
2020-11-22 04:00:00 1.5 -- -- -- -- 0 -- -- 58
2020-11-22 03:00:00 1.5 -- -- -- -- 0 -- -- 57
2020-11-22 02:00:00 1.8 -- -- -- -- 0 -- -- 57
2020-11-22 01:00:00 1.9 -- -- -- -- 0 -- -- 57
2020-11-22 00:00:00 2.3 -- -- -- -- 0 -- -- 52
2020-11-21 23:00:00 2.4 -- -- -- -- 0 -- -- 55
2020-11-21 22:00:00 2.3 -- -- -- -- 0 -- -- 55
2020-11-21 21:00:00 2.6 -- -- -- -- 0 -- -- 56
2020-11-21 20:00:00 2.8 -- -- -- -- 0 -- -- 55
2020-11-21 19:00:00 3.2 -- -- -- -- 0 -- -- 55
2020-11-21 18:00:00 4.5 -- -- -- -- 0 -- -- 51
2020-11-21 17:00:00 6 -- -- -- -- 0 -- -- 47
2020-11-21 16:00:00 8.4 -- -- -- -- 0 -- -- 35
2020-11-21 15:00:00 12.5 -- -- -- -- 0 -- -- 25
2020-11-21 14:00:00 12.1 -- -- -- -- 0 -- -- 22
2020-11-21 13:00:00 13.2 -- -- -- -- 0 -- -- 20
2020-11-21 12:00:00 12.2 -- -- -- -- 0 -- -- 21
2020-11-21 11:00:00 7.5 -- -- -- -- 0 -- -- 37
2020-11-21 10:00:00 1.8 -- -- -- -- 0 -- -- 54
2020-11-21 09:00:00 2.8 -- -- -- -- 0 -- -- 45
2020-11-21 08:00:00 2.5 -- -- -- -- 0 -- -- 39
2020-11-21 07:00:00 1.6 -- -- -- -- 0 -- -- 48
2020-11-21 06:00:00 2.3 -- -- -- -- 0 -- -- 45
2020-11-21 05:00:00 1.8 -- -- -- -- 0 -- -- 42
2020-11-21 04:00:00 2.5 -- -- -- -- 0 -- -- 42
2020-11-21 03:00:00 1.9 -- -- -- -- 0 -- -- 45
2020-11-21 02:00:00 2.3 -- -- -- -- 0 -- -- 39
2020-11-21 01:00:00 2.5 -- -- -- -- 0 -- -- 36
2020-11-21 00:00:00 2.3 -- -- -- -- 0 -- -- 42
2020-11-20 23:00:00 2.4 -- -- -- -- 0 -- -- 35
2020-11-20 22:00:00 2.5 -- -- -- -- 0 -- -- 39
2020-11-20 21:00:00 2.9 -- -- -- -- 0 -- -- 41
2020-11-20 20:00:00 3.9 -- -- -- -- 0 -- -- 34
2020-11-20 19:00:00 6 -- -- -- -- 0 -- -- 28
2020-11-20 18:00:00 8.8 -- -- -- -- 0 -- -- 22
2020-11-20 17:00:00 10 -- -- -- -- 0 -- -- 17
2020-11-20 16:00:00 9.9 -- -- -- -- 0 -- -- 16
2020-11-20 15:00:00 11.5 -- -- -- -- 0 -- -- 14
2020-11-20 14:00:00 12.4 -- -- -- -- 0 -- -- 16
2020-11-20 13:00:00 12.2 -- -- -- -- 0 -- -- 15
2020-11-20 12:00:00 12.1 -- -- -- -- 0 -- -- 17
2020-11-20 11:00:00 10.7 -- -- -- -- 0 -- -- 13
2020-11-20 10:00:00 8.7 -- -- -- -- 0 -- -- 12
2020-11-20 09:00:00 7.4 -- -- -- -- 0 -- -- 12
2020-11-20 08:00:00 8.1 -- -- -- -- 0 -- -- 11
2020-11-20 07:00:00 8.5 -- -- -- -- 0 -- -- 12
2020-11-20 06:00:00 9.2 -- -- -- -- 0 -- -- 11
2020-11-20 05:00:00 9.3 -- -- -- -- 0 -- -- 13
2020-11-20 04:00:00 3.9 -- -- -- -- 0 -- -- 53
2020-11-20 03:00:00 8.1 -- -- -- -- 0 -- -- 31
2020-11-20 02:00:00 3.6 -- -- -- -- 0 -- -- 58
2020-11-20 01:00:00 4.5 -- -- -- -- 0 -- -- 47
2020-11-20 00:00:00 8 -- -- -- -- 0 -- -- 38
2020-11-19 23:00:00 8.9 -- -- -- -- 0 -- -- 31
2020-11-19 22:00:00 5.3 -- -- -- -- 0 -- -- 63
2020-11-19 21:00:00 5.8 -- -- -- -- 0 -- -- 65
2020-11-19 20:00:00 6.4 -- -- -- -- 0 -- -- 65
2020-11-19 19:00:00 8.1 -- -- -- -- 0 -- -- 60
2020-11-19 18:00:00 11.6 -- -- -- -- 0 -- -- 49
2020-11-19 17:00:00 13.5 -- -- -- -- 0 -- -- 43
2020-11-19 16:00:00 14.8 -- -- -- -- 0 -- -- 45
2020-11-19 15:00:00 16.7 -- -- -- -- 0 -- -- 45
2020-11-19 14:00:00 16.8 -- -- -- -- 0 -- -- 47
2020-11-19 13:00:00 17.4 -- -- -- -- 0 -- -- 44
2020-11-19 12:00:00 16.6 -- -- -- -- 0 -- -- 45
2020-11-19 11:00:00 14.6 -- -- -- -- 0 -- -- 49
2020-11-19 10:00:00 13.4 -- -- -- -- 0 -- -- 56
2020-11-19 09:00:00 6.7 -- -- -- -- 0 -- -- 82
2020-11-19 08:00:00 5.9 -- -- -- -- 0 -- -- 84
2020-11-19 07:00:00 6.3 -- -- -- -- 0 -- -- 84
2020-11-19 06:00:00 6.5 -- -- -- -- 0 -- -- 79
2020-11-19 05:00:00 6.1 -- -- -- -- 0 -- -- 81
2020-11-19 04:00:00 6.8 -- -- -- -- 0 -- -- 77
2020-11-19 03:00:00 6.7 -- -- -- -- 0 -- -- 77
2020-11-19 02:00:00 6.7 -- -- -- -- 0 -- -- 78
2020-11-19 01:00:00 6.7 -- -- -- -- 0 -- -- 76
2020-11-19 00:00:00 6.7 -- -- -- -- 0 -- -- 75
2020-11-18 23:00:00 6 -- -- -- -- 0 -- -- 82
2020-11-18 22:00:00 6.3 -- -- -- -- 0 -- -- 83
2020-11-18 21:00:00 6.5 -- -- -- -- 0 -- -- 82
2020-11-18 20:00:00 7 -- -- -- -- 0 -- -- 82
2020-11-18 19:00:00 7.7 -- -- -- -- 0 -- -- 79
2020-11-18 18:00:00 8.6 -- -- -- -- 0 -- -- 79
2020-11-18 17:00:00 10.1 -- -- -- -- 0 -- -- 72
2020-11-18 16:00:00 12.7 -- -- -- -- 0 -- -- 63
2020-11-18 15:00:00 17.2 -- -- -- -- 0 -- -- 48
2020-11-18 14:00:00 17.5 -- -- -- -- 0 -- -- 43
2020-11-18 13:00:00 16.9 -- -- -- -- 0 -- -- 44
2020-11-18 12:00:00 16.4 -- -- -- -- 0 -- -- 44
2020-11-18 11:00:00 12 -- -- -- -- 0 -- -- 63
2020-11-18 10:00:00 6 -- -- -- -- 0 -- -- 79
2020-11-18 09:00:00 6.1 -- -- -- -- 0 -- -- 75
2020-11-18 08:00:00 5.7 -- -- -- -- 0 -- -- 75
2020-11-18 07:00:00 5.9 -- -- -- -- 0 -- -- 76
2020-11-18 06:00:00 6.3 -- -- -- -- 0 -- -- 75
2020-11-18 05:00:00 5.8 -- -- -- -- 0 -- -- 80
2020-11-18 04:00:00 6.4 -- -- -- -- 0 -- -- 76
2020-11-18 03:00:00 5.5 -- -- -- -- 0 -- -- 82
2020-11-18 02:00:00 5.9 -- -- -- -- 0 -- -- 82
2020-11-18 01:00:00 6.2 -- -- -- -- 0 -- -- 80
2020-11-18 00:00:00 6 -- -- -- -- 0 -- -- 84
2020-11-17 23:00:00 6.2 -- -- -- -- 0 -- -- 83
2020-11-17 22:00:00 6.4 -- -- -- -- 0 -- -- 83
2020-11-17 21:00:00 6.6 -- -- -- -- 0 -- -- 81
2020-11-17 20:00:00 6.8 -- -- -- -- 0 -- -- 81
2020-11-17 19:00:00 7.2 -- -- -- -- 0 -- -- 78
2020-11-17 18:00:00 8.3 -- -- -- -- 0 -- -- 72
2020-11-17 17:00:00 9.9 -- -- -- -- 0 -- -- 68
2020-11-17 16:00:00 12.6 -- -- -- -- 0 -- -- 55
2020-11-17 15:00:00 16.7 -- -- -- -- 0 -- -- 40
2020-11-17 14:00:00 17.1 -- -- -- -- 0 -- -- 37
2020-11-17 13:00:00 17 -- -- -- -- 0 -- -- 37
2020-11-17 12:00:00 15.6 -- -- -- -- 0 -- -- 41
2020-11-17 11:00:00 12.2 -- -- -- -- 0 -- -- 64
2020-11-17 10:00:00 6.7 -- -- -- -- 0 -- -- 81
2020-11-17 09:00:00 6 -- -- -- -- 0 -- -- 82
2020-11-17 08:00:00 5.7 -- -- -- -- 0 -- -- 80
2020-11-17 07:00:00 6.7 -- -- -- -- 0 -- -- 70
2020-11-17 06:00:00 5.6 -- -- -- -- 0 -- -- 72
2020-11-17 05:00:00 4.9 -- -- -- -- 0 -- -- 72
2020-11-17 04:00:00 6.5 -- -- -- -- 0 -- -- 60
2020-11-17 03:00:00 4.8 -- -- -- -- 0 -- -- 65
2020-11-17 02:00:00 4.1 -- -- -- -- 0 -- -- 80
2020-11-17 01:00:00 4.2 -- -- -- -- 0 -- -- 83
2020-11-17 00:00:00 4.9 -- -- -- -- 0 -- -- 82
2020-11-16 23:00:00 5.3 -- -- -- -- 0 -- -- 79
2020-11-16 22:00:00 5.5 -- -- -- -- 0 -- -- 79
2020-11-16 21:00:00 6.1 -- -- -- -- 0 -- -- 71
2020-11-16 20:00:00 6 -- -- -- -- 0 -- -- 76
2020-11-16 19:00:00 7.3 -- -- -- -- 0 -- -- 78
2020-11-16 18:00:00 9 -- -- -- -- 0 -- -- 81
2020-11-16 17:00:00 11.2 -- -- -- -- 0 -- -- 82
2020-11-16 16:00:00 12.6 -- -- -- -- 0 -- -- 73
2020-11-16 15:00:00 14.4 -- -- -- -- 0 -- -- 63
2020-11-16 14:00:00 15.3 -- -- -- -- 0 -- -- 57
2020-11-16 13:00:00 15.2 -- -- -- -- 0 -- -- 61
2020-11-16 12:00:00 13.7 -- -- -- -- 0 -- -- 71
2020-11-16 11:00:00 10.5 -- -- -- -- 0 -- -- 79
2020-11-16 10:00:00 5 -- -- -- -- -- -- -- 93
2020-11-16 09:00:00 5.4 -- -- -- -- 0 -- -- 91
2020-11-16 08:00:00 5.4 -- -- -- -- 0 -- -- 95
2020-11-16 07:00:00 5.5 -- -- -- -- 0 -- -- 97
2020-11-16 06:00:00 6.1 -- -- -- -- 0 -- -- 98
2020-11-16 05:00:00 6.6 -- -- -- -- 0 -- -- 98
2020-11-16 04:00:00 6.7 -- -- -- -- 0 -- -- 97
2020-11-16 03:00:00 7.7 -- -- -- -- 0 -- -- 97